Time;durP1;ratioP1;P1;durP2;ratioP2;P2;SDS_P1;SDS_P2;PMS_P1;PMS_P2;Temp;Humidity;BMP_temperature;BMP_pressure;BME280_temperature;BME280_humidity;BME280_pressure;Samples;Min_cycle;Max_cycle;Signal;HPM_P1;HPM_P2
2023/09/10 08:00:31;;;;;;;18.80;13.82;;;;;;;;;;4962362;28;20554;-72
2023/09/10 08:03:02;;;;;;;16.08;14.38;;;;;;;;;;4956029;28;20093;-72
2023/09/10 08:05:29;;;;;;;20.23;15.65;;;;;;;;;;4971085;28;20042;-73
2023/09/10 08:07:55;;;;;;;17.67;15.90;;;;;;;;;;4970815;28;20043;-73
2023/09/10 08:10:21;;;;;;;16.58;14.88;;;;;;;;;;4970850;28;20050;-71
2023/09/10 08:12:47;;;;;;;17.33;14.60;;;;;;;;;;4970352;28;20125;-70
2023/09/10 08:15:12;;;;;;;19.50;15.68;;;;;;;;;;4953628;28;20397;-69
2023/09/10 08:17:38;;;;;;;17.42;15.63;;;;;;;;;;4970420;28;20463;-70
2023/09/10 08:20:06;;;;;;;17.45;15.65;;;;;;;;;;4970573;28;20030;-70
2023/09/10 08:22:33;;;;;;;20.30;16.90;;;;;;;;;;4970701;28;20038;-70
2023/09/10 08:24:58;;;;;;;20.52;16.35;;;;;;;;;;4954532;28;20105;-70
2023/09/10 08:27:24;;;;;;;20.38;16.05;;;;;;;;;;4965548;28;20062;-69
2023/09/10 08:29:51;;;;;;;18.17;15.40;;;;;;;;;;4969506;28;20047;-70
2023/09/10 08:32:17;;;;;;;19.15;15.27;;;;;;;;;;4969627;28;20038;-70
2023/09/10 08:34:43;;;;;;;16.85;15.20;;;;;;;;;;4970348;28;20046;-70
2023/09/10 08:37:11;;;;;;;16.58;14.98;;;;;;;;;;4970987;28;20062;-69
2023/09/10 08:39:37;;;;;;;20.83;16.33;;;;;;;;;;4968891;28;20390;-71
2023/09/10 08:42:07;;;;;;;20.67;15.65;;;;;;;;;;4953111;28;20047;-70
2023/09/10 08:44:33;;;;;;;21.42;16.30;;;;;;;;;;4970015;28;20113;-69
2023/09/10 08:46:59;;;;;;;22.05;15.75;;;;;;;;;;4952915;28;20046;-70
2023/09/10 08:49:26;;;;;;;17.33;14.50;;;;;;;;;;4952919;28;20039;-71
2023/09/10 08:51:52;;;;;;;17.95;15.65;;;;;;;;;;4970558;28;20104;-69
2023/09/10 08:54:18;;;;;;;20.88;17.10;;;;;;;;;;4970373;28;20051;-70
2023/09/10 08:56:44;;;;;;;17.35;15.23;;;;;;;;;;4969054;28;20042;-69
2023/09/10 08:59:11;;;;;;;21.58;16.17;;;;;;;;;;4969955;28;20046;-70
2023/09/10 09:01:37;;;;;;;19.98;16.60;;;;;;;;;;4970213;28;20078;-70
2023/09/10 09:04:03;;;;;;;19.02;17.10;;;;;;;;;;4968927;28;20481;-70
2023/09/10 09:06:29;;;;;;;21.50;16.08;;;;;;;;;;4970383;28;20038;-70
2023/09/10 09:08:56;;;;;;;20.67;18.50;;;;;;;;;;4970021;28;20038;-69
2023/09/10 09:11:22;;;;;;;25.23;16.75;;;;;;;;;;4952756;28;20449;-70
2023/09/10 09:13:48;;;;;;;27.13;16.77;;;;;;;;;;4968799;28;20050;-71
2023/09/10 09:16:15;;;;;;;29.58;16.73;;;;;;;;;;4970305;28;20042;-71
2023/09/10 09:18:41;;;;;;;23.80;16.55;;;;;;;;;;4968834;28;20137;-71
2023/09/10 09:21:19;;;;;;;20.15;16.17;;;;;;;;;;4970319;28;20496;-70
2023/09/10 09:23:54;;;;;;;18.73;16.10;;;;;;;;;;4968494;28;20042;-70
2023/09/10 09:26:20;;;;;;;16.70;14.90;;;;;;;;;;4983178;28;20143;-71
2023/09/10 09:28:46;;;;;;;18.38;16.38;;;;;;;;;;4957682;28;20050;-70
2023/09/10 09:31:12;;;;;;;15.40;13.75;;;;;;;;;;4968766;28;20054;-70
2023/09/10 09:33:39;;;;;;;17.85;16.08;;;;;;;;;;4968674;28;20062;-70
2023/09/10 09:36:10;;;;;;;18.30;16.50;;;;;;;;;;4970338;28;20043;-70
2023/09/10 09:38:44;;;;;;;18.75;16.60;;;;;;;;;;4969550;28;20031;-72
2023/09/10 09:41:10;;;;;;;19.63;15.30;;;;;;;;;;4969985;28;20042;-69
2023/09/10 09:43:35;;;;;;;18.38;16.15;;;;;;;;;;4969406;28;20053;-71
2023/09/10 09:46:02;;;;;;;17.95;16.17;;;;;;;;;;4968177;28;20128;-70
2023/09/10 09:48:28;;;;;;;17.65;15.85;;;;;;;;;;4952329;28;20043;-70
2023/09/10 09:50:54;;;;;;;18.02;16.33;;;;;;;;;;4969796;28;20050;-70
2023/09/10 09:53:27;;;;;;;17.30;15.60;;;;;;;;;;4970577;28;20050;-70
2023/09/10 09:55:57;;;;;;;17.13;15.50;;;;;;;;;;4972005;28;20404;-69
2023/09/10 09:58:22;;;;;;;13.98;12.55;;;;;;;;;;4973010;28;20479;-71
2023/09/10 10:00:49;;;;;;;17.15;15.27;;;;;;;;;;4971702;28;20045;-70
2023/09/10 10:03:15;;;;;;;17.90;15.40;;;;;;;;;;4974016;28;20126;-71
2023/09/10 10:05:42;;;;;;;16.50;15.07;;;;;;;;;;4989600;28;20042;-71
2023/09/10 10:08:08;;;;;;;19.17;15.43;;;;;;;;;;4989305;28;20634;-69
2023/09/10 10:10:35;;;;;;;21.90;16.15;;;;;;;;;;4990469;28;20101;-68
2023/09/10 10:13:02;;;;;;;20.95;15.35;;;;;;;;;;4989180;28;20061;-69
2023/09/10 10:15:28;;;;;;;17.65;14.75;;;;;;;;;;4989102;28;20057;-69
2023/09/10 10:17:54;;;;;;;17.33;15.50;;;;;;;;;;4990439;28;20038;-69
2023/09/10 10:20:20;;;;;;;17.05;15.02;;;;;;;;;;4957722;28;20160;-70
2023/09/10 10:22:46;;;;;;;18.25;15.98;;;;;;;;;;4992265;28;20049;-69
2023/09/10 10:25:12;;;;;;;18.20;14.75;;;;;;;;;;4992309;28;20050;-69
2023/09/10 10:27:38;;;;;;;17.85;16.05;;;;;;;;;;4990989;28;20539;-69
2023/09/10 10:30:05;;;;;;;19.90;15.30;;;;;;;;;;4990583;28;20049;-70
2023/09/10 10:32:37;;;;;;;15.70;14.10;;;;;;;;;;4990168;28;20182;-69
2023/09/10 10:35:05;;;;;;;16.67;14.45;;;;;;;;;;4990881;28;20042;-69
2023/09/10 10:37:47;;;;;;;16.05;13.85;;;;;;;;;;4990886;28;20133;-69
2023/09/10 10:40:20;;;;;;;15.98;14.60;;;;;;;;;;4991012;28;20046;-69
2023/09/10 10:42:50;;;;;;;17.20;15.35;;;;;;;;;;4990909;28;20049;-69
2023/09/10 10:45:17;;;;;;;16.50;15.07;;;;;;;;;;4992039;28;20430;-70
2023/09/10 10:47:43;;;;;;;16.38;14.82;;;;;;;;;;4990651;28;20046;-69
2023/09/10 10:50:10;;;;;;;18.02;15.57;;;;;;;;;;4992106;28;20070;-69
2023/09/10 10:52:38;;;;;;;16.70;14.35;;;;;;;;;;4974600;28;20422;-69
2023/09/10 10:55:04;;;;;;;14.82;13.52;;;;;;;;;;4991949;28;20118;-70
2023/09/10 10:57:30;;;;;;;17.02;15.50;;;;;;;;;;4974474;28;20046;-69
2023/09/10 10:59:57;;;;;;;16.52;14.27;;;;;;;;;;4979054;28;20523;-70
2023/09/10 11:02:23;;;;;;;13.95;12.50;;;;;;;;;;4972654;28;20706;-70
2023/09/10 11:05:03;;;;;;;15.73;14.45;;;;;;;;;;4970002;28;20058;-71
2023/09/10 11:07:32;;;;;;;14.93;13.45;;;;;;;;;;4972278;28;20046;-70
2023/09/10 11:10:16;;;;;;;15.70;14.38;;;;;;;;;;4954856;28;20053;-70
2023/09/10 11:13:02;;;;;;;14.45;13.35;;;;;;;;;;4970981;28;20051;-70
2023/09/10 11:15:28;;;;;;;15.25;13.82;;;;;;;;;;4970827;28;20499;-71
2023/09/10 11:17:54;;;;;;;16.58;15.05;;;;;;;;;;4971332;28;20046;-70
2023/09/10 11:20:39;;;;;;;15.25;13.52;;;;;;;;;;4953095;28;20062;-70
2023/09/10 11:23:09;;;;;;;20.58;14.30;;;;;;;;;;4970558;28;20043;-70
2023/09/10 11:25:35;;;;;;;18.67;16.88;;;;;;;;;;4971323;28;20042;-69
2023/09/10 11:28:01;;;;;;;15.88;14.50;;;;;;;;;;4938702;28;20411;-70
2023/09/10 11:30:28;;;;;;;17.10;15.38;;;;;;;;;;4971382;28;20039;-69
2023/09/10 11:33:13;;;;;;;16.40;14.70;;;;;;;;;;4962766;28;20070;-69
2023/09/10 11:35:39;;;;;;;15.00;13.70;;;;;;;;;;4971207;28;20089;-70
2023/09/10 11:38:05;;;;;;;16.52;15.13;;;;;;;;;;4971590;28;20042;-69
2023/09/10 11:40:31;;;;;;;18.95;16.20;;;;;;;;;;4971004;28;20066;-69
2023/09/10 11:42:58;;;;;;;17.67;13.77;;;;;;;;;;4971702;28;20054;-67
2023/09/10 11:45:30;;;;;;;13.18;11.88;;;;;;;;;;4971305;28;20133;-68
2023/09/10 11:47:56;;;;;;;14.57;13.27;;;;;;;;;;4970046;28;20038;-69
2023/09/10 11:50:23;;;;;;;14.48;13.10;;;;;;;;;;4971198;28;20047;-68
2023/09/10 11:52:49;;;;;;;15.00;13.70;;;;;;;;;;4970817;28;20586;-69
2023/09/10 11:55:15;;;;;;;15.00;13.50;;;;;;;;;;4971106;28;20046;-69
2023/09/10 11:57:41;;;;;;;15.23;13.43;;;;;;;;;;4982509;28;20034;-69
2023/09/10 12:00:11;;;;;;;14.20;12.90;;;;;;;;;;4978493;28;20506;-69
2023/09/10 12:02:43;;;;;;;16.10;14.50;;;;;;;;;;4969790;28;20039;-68
2023/09/10 12:05:09;;;;;;;17.42;15.70;;;;;;;;;;4979463;28;20555;-69
2023/09/10 12:07:35;;;;;;;23.75;14.35;;;;;;;;;;4988466;28;20530;-68
2023/09/10 12:10:01;;;;;;;17.75;13.40;;;;;;;;;;4990547;28;20050;-69
2023/09/10 12:12:30;;;;;;;15.27;13.82;;;;;;;;;;4988977;28;20538;-69
2023/09/10 12:14:56;;;;;;;15.57;14.05;;;;;;;;;;4988195;28;20129;-69
2023/09/10 12:17:22;;;;;;;15.45;13.85;;;;;;;;;;4986295;28;20185;-69
2023/09/10 12:19:49;;;;;;;14.95;13.65;;;;;;;;;;4977872;28;20038;-69
2023/09/10 12:22:18;;;;;;;17.20;13.30;;;;;;;;;;4974679;28;20106;-71
2023/09/10 12:24:44;;;;;;;15.02;13.70;;;;;;;;;;4969096;28;20424;-71
2023/09/10 12:27:13;;;;;;;15.63;14.07;;;;;;;;;;4984863;28;20133;-70
2023/09/10 12:29:39;;;;;;;15.35;13.80;;;;;;;;;;4973783;28;20122;-70
2023/09/10 12:32:05;;;;;;;15.18;13.70;;;;;;;;;;4982644;28;20046;-69
2023/09/10 12:34:32;;;;;;;16.52;15.00;;;;;;;;;;4977959;28;20050;-69
2023/09/10 12:36:57;;;;;;;14.43;13.18;;;;;;;;;;4975136;28;20053;-71
2023/09/10 12:39:24;;;;;;;15.35;13.88;;;;;;;;;;4987720;28;20422;-70
2023/09/10 12:41:50;;;;;;;14.98;13.38;;;;;;;;;;4985718;28;20619;-70
2023/09/10 12:44:16;;;;;;;14.43;13.00;;;;;;;;;;4994115;28;20044;-70
2023/09/10 12:46:42;;;;;;;14.77;13.38;;;;;;;;;;4975422;28;20057;-69
2023/09/10 12:49:08;;;;;;;23.80;13.57;;;;;;;;;;4981264;28;20493;-70
2023/09/10 12:51:35;;;;;;;13.93;12.60;;;;;;;;;;4975807;28;20130;-69
2023/09/10 12:54:01;;;;;;;15.13;13.70;;;;;;;;;;4979714;28;20054;-70
2023/09/10 12:56:28;;;;;;;14.70;13.30;;;;;;;;;;4974367;28;20039;-69
2023/09/10 12:58:55;;;;;;;21.08;13.90;;;;;;;;;;4969118;28;20047;-70
2023/09/10 13:01:25;;;;;;;15.70;13.73;;;;;;;;;;4983164;28;20038;-69
2023/09/10 13:03:51;;;;;;;17.88;15.10;;;;;;;;;;4978285;28;20060;-70
2023/09/10 13:06:17;;;;;;;15.77;14.43;;;;;;;;;;4973421;28;20049;-70
2023/09/10 13:08:43;;;;;;;15.25;13.85;;;;;;;;;;4978247;28;20046;-70
2023/09/10 13:11:09;;;;;;;14.27;13.05;;;;;;;;;;4973148;28;20526;-70
2023/09/10 13:13:35;;;;;;;15.90;13.98;;;;;;;;;;4969995;28;20050;-71
2023/09/10 13:16:01;;;;;;;16.38;14.48;;;;;;;;;;4985776;28;20495;-70
2023/09/10 13:18:27;;;;;;;17.83;14.18;;;;;;;;;;4989614;28;20046;-70
2023/09/10 13:20:53;;;;;;;16.08;14.40;;;;;;;;;;4975974;28;20745;-69
2023/09/10 13:23:19;;;;;;;15.80;14.23;;;;;;;;;;4989611;28;20136;-70
2023/09/10 13:25:45;;;;;;;16.15;14.65;;;;;;;;;;4989362;28;20045;-71
2023/09/10 13:28:12;;;;;;;14.98;13.55;;;;;;;;;;4990344;28;20050;-74
2023/09/10 13:30:38;;;;;;;14.82;13.27;;;;;;;;;;4992080;28;20042;-75
2023/09/10 13:33:04;;;;;;;16.13;14.63;;;;;;;;;;4991604;28;20100;-74
2023/09/10 13:35:32;;;;;;;17.70;14.30;;;;;;;;;;4992318;28;20044;-73
2023/09/10 13:37:58;;;;;;;15.70;14.18;;;;;;;;;;4972308;28;20412;-74
2023/09/10 13:40:24;;;;;;;22.27;14.20;;;;;;;;;;4982594;28;20042;-74
2023/09/10 13:42:50;;;;;;;15.82;14.52;;;;;;;;;;4980360;28;20071;-73
2023/09/10 13:45:18;;;;;;;16.85;15.15;;;;;;;;;;4982569;28;20042;-74
2023/09/10 13:47:44;;;;;;;18.48;14.55;;;;;;;;;;4989811;28;20117;-76
2023/09/10 13:50:11;;;;;;;18.25;16.40;;;;;;;;;;4977215;28;20117;-76
2023/09/10 13:52:38;;;;;;;16.13;14.60;;;;;;;;;;4963239;28;20045;-74
2023/09/10 13:55:05;;;;;;;17.15;15.00;;;;;;;;;;4976931;28;20039;-74
2023/09/10 13:57:31;;;;;;;16.55;14.18;;;;;;;;;;4976905;28;20145;-74
2023/09/10 13:59:57;;;;;;;19.00;15.80;;;;;;;;;;4983723;28;20387;-75
2023/09/10 14:02:24;;;;;;;18.33;15.88;;;;;;;;;;4994178;28;20038;-75
2023/09/10 14:04:50;;;;;;;18.52;15.88;;;;;;;;;;4993603;28;20113;-75
2023/09/10 14:07:16;;;;;;;21.90;15.65;;;;;;;;;;4962881;28;20539;-75
2023/09/10 14:09:42;;;;;;;18.08;14.90;;;;;;;;;;4991073;28;20038;-75
2023/09/10 14:12:09;;;;;;;18.38;16.48;;;;;;;;;;4975335;28;20121;-75
2023/09/10 14:14:36;;;;;;;18.50;16.73;;;;;;;;;;4984078;28;20084;-75
2023/09/10 14:17:02;;;;;;;18.17;15.43;;;;;;;;;;4974299;28;20035;-76
2023/09/10 14:19:29;;;;;;;17.45;14.73;;;;;;;;;;4971697;28;20046;-76
2023/09/10 14:21:55;;;;;;;16.63;15.00;;;;;;;;;;4985658;28;20078;-76
2023/09/10 14:24:24;;;;;;;27.33;15.55;;;;;;;;;;4972657;28;20084;-75
2023/09/10 14:26:54;;;;;;;17.95;16.10;;;;;;;;;;4977114;28;20266;-75
2023/09/10 14:29:20;;;;;;;17.80;15.88;;;;;;;;;;4958792;28;20074;-75
2023/09/10 14:31:46;;;;;;;19.27;15.55;;;;;;;;;;4977313;28;20046;-74
2023/09/10 14:34:12;;;;;;;16.35;14.80;;;;;;;;;;4948769;28;20504;-73
2023/09/10 14:36:39;;;;;;;16.95;15.35;;;;;;;;;;4940060;28;20034;-76
2023/09/10 14:39:04;;;;;;;16.48;14.90;;;;;;;;;;4992694;28;20097;-73
2023/09/10 14:41:30;;;;;;;17.10;14.80;;;;;;;;;;4976441;28;20045;-73
2023/09/10 14:43:56;;;;;;;15.32;13.82;;;;;;;;;;4974844;28;20039;-75
2023/09/10 14:46:22;;;;;;;19.05;15.32;;;;;;;;;;4962903;28;20074;-75
2023/09/10 14:48:49;;;;;;;17.30;15.55;;;;;;;;;;4993414;28;20042;-76
2023/09/10 14:51:15;;;;;;;19.70;15.65;;;;;;;;;;4975316;28;20458;-75
2023/09/10 14:53:41;;;;;;;20.20;13.65;;;;;;;;;;4956075;28;20082;-77
2023/09/10 14:56:07;;;;;;;28.55;15.95;;;;;;;;;;4971669;28;20055;-77
2023/09/10 14:58:33;;;;;;;18.88;14.18;;;;;;;;;;4971405;28;20157;-77
2023/09/10 15:00:59;;;;;;;17.88;15.13;;;;;;;;;;4971122;28;20042;-77
2023/09/10 15:03:25;;;;;;;21.20;15.98;;;;;;;;;;4972943;28;20049;-76
2023/09/10 15:05:51;;;;;;;19.77;15.32;;;;;;;;;;4954716;28;20181;-75
2023/09/10 15:08:17;;;;;;;17.17;15.50;;;;;;;;;;4955018;28;20057;-76
2023/09/10 15:10:43;;;;;;;18.23;15.25;;;;;;;;;;4972523;28;20099;-76
2023/09/10 15:13:09;;;;;;;16.80;15.00;;;;;;;;;;4971539;28;20053;-75
2023/09/10 15:15:35;;;;;;;19.45;15.13;;;;;;;;;;4972800;28;20566;-76
2023/09/10 15:18:01;;;;;;;25.15;15.98;;;;;;;;;;4972059;28;20459;-78
2023/09/10 15:20:27;;;;;;;17.23;14.70;;;;;;;;;;4954604;28;20130;-76
2023/09/10 15:22:53;;;;;;;18.55;16.52;;;;;;;;;;4972094;28;20035;-77
2023/09/10 15:25:20;;;;;;;18.25;15.27;;;;;;;;;;4970526;28;20049;-76
2023/09/10 15:27:46;;;;;;;17.13;15.32;;;;;;;;;;4970817;28;20127;-75
2023/09/10 15:30:12;;;;;;;17.35;15.50;;;;;;;;;;4963815;28;20140;-75
2023/09/10 15:32:38;;;;;;;18.15;15.30;;;;;;;;;;4969185;28;20047;-75
2023/09/10 15:35:04;;;;;;;19.35;14.95;;;;;;;;;;4969326;28;20049;-75
2023/09/10 15:37:30;;;;;;;19.45;15.65;;;;;;;;;;4971608;28;20073;-76
2023/09/10 15:39:56;;;;;;;19.02;15.80;;;;;;;;;;4970057;28;20074;-77
2023/09/10 15:42:22;;;;;;;28.33;16.38;;;;;;;;;;4971389;28;20038;-76
2023/09/10 15:44:48;;;;;;;20.58;15.90;;;;;;;;;;4968587;28;20050;-75
2023/09/10 15:47:14;;;;;;;18.05;16.00;;;;;;;;;;4971096;28;20053;-76
2023/09/10 15:49:41;;;;;;;18.73;16.45;;;;;;;;;;4966164;28;20039;-76
2023/09/10 15:52:07;;;;;;;27.88;19.45;;;;;;;;;;4970254;28;20043;-77
2023/09/10 15:54:33;;;;;;;22.35;17.17;;;;;;;;;;4956521;28;20050;-77
2023/09/10 15:57:00;;;;;;;18.30;16.13;;;;;;;;;;4969385;28;20035;-77
2023/09/10 15:59:26;;;;;;;19.67;15.98;;;;;;;;;;4970932;28;20046;-76
2023/09/10 16:01:52;;;;;;;20.30;16.88;;;;;;;;;;4970835;28;20436;-75
2023/09/10 16:04:18;;;;;;;17.33;15.15;;;;;;;;;;4969548;28;20403;-76
2023/09/10 16:06:47;;;;;;;16.88;15.10;;;;;;;;;;4954124;28;20046;-76
2023/09/10 16:09:16;;;;;;;23.35;14.75;;;;;;;;;;4957587;28;20041;-76
2023/09/10 16:11:42;;;;;;;18.55;16.55;;;;;;;;;;4969807;28;20055;-76
2023/09/10 16:14:08;;;;;;;21.25;17.63;;;;;;;;;;4969059;28;20229;-75
2023/09/10 16:16:34;;;;;;;21.48;16.38;;;;;;;;;;4970131;28;20047;-77
2023/09/10 16:19:00;;;;;;;18.48;16.23;;;;;;;;;;4968887;28;20042;-75
2023/09/10 16:21:26;;;;;;;29.27;16.08;;;;;;;;;;4956702;28;20078;-76
2023/09/10 16:23:52;;;;;;;22.30;17.05;;;;;;;;;;4969034;28;20039;-76
2023/09/10 16:26:18;;;;;;;24.08;17.50;;;;;;;;;;4954445;28;20046;-76
2023/09/10 16:28:45;;;;;;;22.75;17.75;;;;;;;;;;4969475;28;20038;-76
2023/09/10 16:31:11;;;;;;;25.90;18.63;;;;;;;;;;4970247;28;20061;-75
2023/09/10 16:33:37;;;;;;;25.92;19.00;;;;;;;;;;4963269;28;20149;-76
2023/09/10 16:36:03;;;;;;;30.42;18.30;;;;;;;;;;4968038;28;20138;-75
2023/09/10 16:38:29;;;;;;;22.35;17.90;;;;;;;;;;4969221;28;20138;-77
2023/09/10 16:40:55;;;;;;;27.00;19.83;;;;;;;;;;4969231;28;20407;-78
2023/09/10 16:43:22;;;;;;;33.17;22.52;;;;;;;;;;4969336;28;20061;-76
2023/09/10 16:45:47;;;;;;;25.35;18.33;;;;;;;;;;4932591;28;20050;-78
2023/09/10 16:48:13;;;;;;;27.80;19.30;;;;;;;;;;4967374;28;20034;-79
2023/09/10 16:50:40;;;;;;;30.08;19.48;;;;;;;;;;4968795;28;20117;-78
2023/09/10 16:53:06;;;;;;;29.13;19.83;;;;;;;;;;4960628;28;20051;-77
2023/09/10 16:55:33;;;;;;;26.98;19.48;;;;;;;;;;4982015;28;20063;-75
2023/09/10 16:57:59;;;;;;;27.15;20.48;;;;;;;;;;4962471;28;20043;-80
2023/09/10 17:00:25;;;;;;;33.25;20.42;;;;;;;;;;4969248;28;20132;-79
2023/09/10 17:02:51;;;;;;;27.30;19.10;;;;;;;;;;4955706;28;20577;-77
2023/09/10 17:05:17;;;;;;;30.40;19.88;;;;;;;;;;4985605;28;20146;-77
2023/09/10 17:07:43;;;;;;;27.80;20.27;;;;;;;;;;4965905;28;20126;-78
2023/09/10 17:10:09;;;;;;;28.95;20.63;;;;;;;;;;4979446;28;20035;-74
2023/09/10 17:12:35;;;;;;;26.05;20.75;;;;;;;;;;4974068;28;20049;-77
2023/09/10 17:15:02;;;;;;;30.50;20.38;;;;;;;;;;4953930;28;20043;-75
2023/09/10 17:17:34;;;;;;;24.45;19.85;;;;;;;;;;4970336;28;20494;-78
2023/09/10 17:20:00;;;;;;;24.58;18.73;;;;;;;;;;4942161;28;20061;-80
2023/09/10 17:22:26;;;;;;;32.13;22.45;;;;;;;;;;4973262;28;20078;-77
2023/09/10 17:24:52;;;;;;;32.75;23.52;;;;;;;;;;4957005;28;20061;-76
2023/09/10 17:27:18;;;;;;;42.35;24.65;;;;;;;;;;4975097;28;20050;-77
2023/09/10 17:29:44;;;;;;;36.05;23.48;;;;;;;;;;4972382;28;20046;-76
2023/09/10 17:32:10;;;;;;;33.72;23.48;;;;;;;;;;4972236;28;20041;-79
2023/09/10 17:34:36;;;;;;;30.63;23.70;;;;;;;;;;4988448;28;20046;-77
2023/09/10 17:37:04;;;;;;;33.53;22.90;;;;;;;;;;4966226;28;20039;-77
2023/09/10 17:39:30;;;;;;;38.05;24.05;;;;;;;;;;4957827;28;20057;-77
2023/09/10 17:41:56;;;;;;;32.92;23.92;;;;;;;;;;4985623;28;20050;-75
2023/09/10 17:44:23;;;;;;;43.90;25.55;;;;;;;;;;4979869;28;20062;-74
2023/09/10 17:46:55;;;;;;;40.85;24.65;;;;;;;;;;4972182;28;20594;-78
2023/09/10 17:49:21;;;;;;;32.80;22.63;;;;;;;;;;4975606;28;20506;-75
2023/09/10 17:51:47;;;;;;;31.23;20.20;;;;;;;;;;4969963;28;20050;-75
2023/09/10 17:54:13;;;;;;;35.13;24.67;;;;;;;;;;4975061;28;20096;-75
2023/09/10 17:56:40;;;;;;;27.00;21.15;;;;;;;;;;4993195;28;20495;-75
2023/09/10 17:59:06;;;;;;;43.75;25.80;;;;;;;;;;4975053;28;20054;-74
2023/09/10 18:01:32;;;;;;;35.90;22.83;;;;;;;;;;4969477;28;20102;-76
2023/09/10 18:04:01;;;;;;;27.65;20.52;;;;;;;;;;4966818;28;20108;-76
2023/09/10 18:06:27;;;;;;;35.28;23.15;;;;;;;;;;4980418;28;20046;-75
2023/09/10 18:08:53;;;;;;;30.13;23.45;;;;;;;;;;4973108;28;20045;-75
2023/09/10 18:11:18;;;;;;;42.10;28.38;;;;;;;;;;4978194;28;20053;-76
2023/09/10 18:13:46;;;;;;;49.05;29.08;;;;;;;;;;4972741;28;20047;-75
2023/09/10 18:16:12;;;;;;;57.15;33.13;;;;;;;;;;4985769;28;20042;-75
2023/09/10 18:18:38;;;;;;;42.65;28.13;;;;;;;;;;4973451;28;20038;-75
2023/09/10 18:21:04;;;;;;;51.35;31.52;;;;;;;;;;4972768;28;20045;-75
2023/09/10 18:23:30;;;;;;;45.60;29.98;;;;;;;;;;4973491;28;20106;-75
2023/09/10 18:25:56;;;;;;;47.50;31.65;;;;;;;;;;4976073;28;20035;-75
2023/09/10 18:28:22;;;;;;;88.30;53.28;;;;;;;;;;4969342;28;20038;-75
2023/09/10 18:30:48;;;;;;;50.00;30.00;;;;;;;;;;4973136;28;20046;-74
2023/09/10 18:33:15;;;;;;;38.30;27.05;;;;;;;;;;4987381;28;20161;-74
2023/09/10 18:35:42;;;;;;;36.67;25.40;;;;;;;;;;4929111;29;20531;-75
2023/09/10 18:38:08;;;;;;;51.75;29.83;;;;;;;;;;4972715;28;20057;-74
2023/09/10 18:40:41;;;;;;;47.03;27.67;;;;;;;;;;4969997;28;20074;-75
2023/09/10 18:43:07;;;;;;;41.97;28.75;;;;;;;;;;4974034;28;20034;-75
2023/09/10 18:45:39;;;;;;;39.72;26.17;;;;;;;;;;4973401;28;20479;-74
2023/09/10 18:48:06;;;;;;;42.97;26.10;;;;;;;;;;4945973;28;20055;-74
2023/09/10 18:50:32;;;;;;;43.20;28.25;;;;;;;;;;4986362;28;20049;-74
2023/09/10 18:52:58;;;;;;;39.58;25.75;;;;;;;;;;4966661;28;20138;-74
2023/09/10 18:55:25;;;;;;;67.55;36.00;;;;;;;;;;4951381;28;20145;-74
2023/09/10 18:57:51;;;;;;;60.75;36.97;;;;;;;;;;4973870;28;20042;-74
2023/09/10 19:00:19;;;;;;;36.33;25.88;;;;;;;;;;4964508;28;20426;-75
2023/09/10 19:02:45;;;;;;;55.85;36.33;;;;;;;;;;4990730;28;20527;-74
2023/09/10 19:05:11;;;;;;;66.78;41.80;;;;;;;;;;4966010;28;20046;-76
2023/09/10 19:07:37;;;;;;;46.95;28.45;;;;;;;;;;4956634;28;20043;-76
2023/09/10 19:10:03;;;;;;;50.83;29.80;;;;;;;;;;4971320;28;20578;-76
2023/09/10 19:12:31;;;;;;;81.60;45.80;;;;;;;;;;4980787;28;20042;-76
2023/09/10 19:14:57;;;;;;;79.22;46.20;;;;;;;;;;4991624;28;20050;-76
2023/09/10 19:17:23;;;;;;;47.05;31.55;;;;;;;;;;4983218;28;20585;-78
2023/09/10 19:19:49;;;;;;;59.75;37.42;;;;;;;;;;4985141;28;20045;-75
2023/09/10 19:22:15;;;;;;;46.17;30.13;;;;;;;;;;4956565;28;20046;-75
2023/09/10 19:24:40;;;;;;;66.82;36.40;;;;;;;;;;4969971;28;20034;-78
2023/09/10 19:27:07;;;;;;;71.90;47.72;;;;;;;;;;4979683;28;20041;-78
2023/09/10 19:29:33;;;;;;;57.47;35.17;;;;;;;;;;4972975;28;20546;-78
2023/09/10 19:31:59;;;;;;;61.05;37.17;;;;;;;;;;4984801;28;20047;-77
2023/09/10 19:34:25;;;;;;;61.15;37.42;;;;;;;;;;4985708;28;20553;-78
2023/09/10 19:36:51;;;;;;;58.13;36.95;;;;;;;;;;4984127;28;20126;-78
2023/09/10 19:39:24;;;;;;;74.53;38.40;;;;;;;;;;4970027;28;20064;-78
2023/09/10 19:41:50;;;;;;;74.40;41.47;;;;;;;;;;4972052;28;20452;-78
2023/09/10 19:44:16;;;;;;;76.07;37.75;;;;;;;;;;4951058;28;20046;-78
2023/09/10 19:46:42;;;;;;;72.32;41.70;;;;;;;;;;4979897;28;20038;-78
2023/09/10 19:49:08;;;;;;;72.35;42.35;;;;;;;;;;4977551;28;20112;-78
2023/09/10 19:51:34;;;;;;;82.07;44.50;;;;;;;;;;4976825;28;20482;-75
2023/09/10 19:54:00;;;;;;;87.68;46.10;;;;;;;;;;4968670;28;20191;-80
2023/09/10 19:56:26;;;;;;;93.45;48.40;;;;;;;;;;4970301;28;20448;-79
2023/09/10 19:59:02;;;;;;;91.72;50.28;;;;;;;;;;4979524;28;20062;-78
2023/09/10 20:01:29;;;;;;;95.82;49.30;;;;;;;;;;4984870;28;20053;-78
2023/09/10 20:03:55;;;;;;;113.68;47.78;;;;;;;;;;4983118;28;20043;-77
2023/09/10 20:06:21;;;;;;;83.18;44.72;;;;;;;;;;4969597;28;20527;-78
2023/09/10 20:08:51;;;;;;;89.38;42.83;;;;;;;;;;4980927;28;20042;-76
2023/09/10 20:11:17;;;;;;;76.40;39.53;;;;;;;;;;4968684;28;20101;-76
2023/09/10 20:13:43;;;;;;;81.30;44.40;;;;;;;;;;4969947;28;20537;-76
2023/09/10 20:16:10;;;;;;;78.93;44.65;;;;;;;;;;4971225;28;20062;-78
2023/09/10 20:18:36;;;;;;;73.68;41.00;;;;;;;;;;4970821;28;20043;-77
2023/09/10 20:21:02;;;;;;;78.05;42.05;;;;;;;;;;4986348;28;20064;-79
2023/09/10 20:23:28;;;;;;;64.20;39.35;;;;;;;;;;4996413;28;20104;-80
2023/09/10 20:25:54;;;;;;;62.42;38.20;;;;;;;;;;4989598;28;20154;-80
2023/09/10 20:28:20;;;;;;;72.72;40.03;;;;;;;;;;4976882;28;20581;-79
2023/09/10 20:30:46;;;;;;;78.00;40.97;;;;;;;;;;4994966;28;20046;-80
2023/09/10 20:33:12;;;;;;;71.47;40.13;;;;;;;;;;5004259;28;20054;-79
2023/09/10 20:35:39;;;;;;;76.68;42.03;;;;;;;;;;4988657;28;20418;-78
2023/09/10 20:38:06;;;;;;;83.43;39.97;;;;;;;;;;4989034;28;20042;-79
2023/09/10 20:40:32;;;;;;;74.38;39.17;;;;;;;;;;4989462;28;20038;-79
2023/09/10 20:42:58;;;;;;;68.78;36.35;;;;;;;;;;5005385;28;20478;-78
2023/09/10 20:45:24;;;;;;;67.10;36.45;;;;;;;;;;4989075;28;20042;-79
2023/09/10 20:47:50;;;;;;;82.68;39.88;;;;;;;;;;4990390;28;20102;-78
2023/09/10 20:50:16;;;;;;;55.45;33.10;;;;;;;;;;4972826;28;20046;-79
2023/09/10 20:52:42;;;;;;;69.85;37.50;;;;;;;;;;4989258;28;20051;-77
2023/09/10 20:55:08;;;;;;;61.08;33.40;;;;;;;;;;4975305;28;20125;-75
2023/09/10 20:57:34;;;;;;;50.47;31.60;;;;;;;;;;4961931;28;20093;-74
2023/09/10 21:00:00;;;;;;;55.25;32.17;;;;;;;;;;4944176;28;20055;-76
2023/09/10 21:02:28;;;;;;;56.80;32.78;;;;;;;;;;4969956;28;20109;-75
2023/09/10 21:04:54;;;;;;;63.65;33.90;;;;;;;;;;4969641;28;20043;-75
2023/09/10 21:07:20;;;;;;;61.17;32.30;;;;;;;;;;4969350;28;20396;-77
2023/09/10 21:09:46;;;;;;;57.67;35.30;;;;;;;;;;4969762;28;20117;-78
2023/09/10 21:12:12;;;;;;;69.57;37.80;;;;;;;;;;4970995;28;20061;-80
2023/09/10 21:14:39;;;;;;;63.92;36.17;;;;;;;;;;4952682;28;20059;-75
2023/09/10 21:17:05;;;;;;;61.92;34.90;;;;;;;;;;4951110;28;20145;-78
2023/09/10 21:19:32;;;;;;;63.28;34.80;;;;;;;;;;4950551;28;20059;-78
2023/09/10 21:21:58;;;;;;;70.93;37.17;;;;;;;;;;4970833;28;20050;-78
2023/09/10 21:24:24;;;;;;;55.95;32.63;;;;;;;;;;4981564;28;20059;-78
2023/09/10 21:26:50;;;;;;;68.50;36.35;;;;;;;;;;4983769;28;20050;-73
2023/09/10 21:29:16;;;;;;;62.13;34.55;;;;;;;;;;4969013;28;20043;-77
2023/09/10 21:31:42;;;;;;;64.80;35.17;;;;;;;;;;4963011;28;20059;-77
2023/09/10 21:34:08;;;;;;;59.75;34.20;;;;;;;;;;4952443;28;20125;-76
2023/09/10 21:36:34;;;;;;;58.75;32.22;;;;;;;;;;4960328;28;20551;-76
2023/09/10 21:39:00;;;;;;;62.72;33.80;;;;;;;;;;4964848;28;20039;-78
2023/09/10 21:41:26;;;;;;;58.45;33.45;;;;;;;;;;4966195;28;20046;-76
2023/09/10 21:43:52;;;;;;;62.10;34.53;;;;;;;;;;4954035;28;20529;-78
2023/09/10 21:46:18;;;;;;;62.72;34.88;;;;;;;;;;4985772;28;20149;-77
2023/09/10 21:48:44;;;;;;;67.68;36.15;;;;;;;;;;4971140;28;20043;-76
2023/09/10 21:51:10;;;;;;;60.47;32.60;;;;;;;;;;4974239;28;20047;-75
2023/09/10 21:53:37;;;;;;;66.43;36.22;;;;;;;;;;4972591;28;20060;-76
2023/09/10 21:56:03;;;;;;;56.28;33.47;;;;;;;;;;4973366;28;20134;-77
2023/09/10 21:58:29;;;;;;;55.90;33.42;;;;;;;;;;4973294;28;20137;-76
2023/09/10 22:00:56;;;;;;;54.80;33.20;;;;;;;;;;4956586;28;20137;-76
2023/09/10 22:03:25;;;;;;;67.40;35.58;;;;;;;;;;4956716;28;20193;-76
2023/09/10 22:05:53;;;;;;;62.35;34.47;;;;;;;;;;4972838;28;20043;-75
2023/09/10 22:08:21;;;;;;;58.70;34.33;;;;;;;;;;4972785;28;20503;-77
2023/09/10 22:10:47;;;;;;;52.63;31.55;;;;;;;;;;4974555;28;20047;-76
2023/09/10 22:13:17;;;;;;;57.97;33.95;;;;;;;;;;4972389;28;20051;-76